createdAt,value
2022-08-20T00:00:19.158Z,12.05
2022-08-20T00:02:48.320Z,8.68
2022-08-20T00:05:15.472Z,10.40
2022-08-20T00:07:42.157Z,8.07
2022-08-20T00:10:09.281Z,9.02
2022-08-20T00:12:36.488Z,8.52
2022-08-20T00:15:04.107Z,9.25
2022-08-20T00:17:37.421Z,9.15
2022-08-20T00:20:09.331Z,11.00
2022-08-20T00:22:36.136Z,9.95
2022-08-20T00:25:04.383Z,9.07
2022-08-20T00:27:31.069Z,7.78
2022-08-20T00:29:57.716Z,10.25
2022-08-20T00:32:24.339Z,11.30
2022-08-20T00:34:51.040Z,7.20
2022-08-20T00:37:17.744Z,10.55
2022-08-20T00:39:44.804Z,10.30
2022-08-20T00:42:11.704Z,10.38
2022-08-20T00:44:40.804Z,10.70
2022-08-20T00:47:09.187Z,7.35
2022-08-20T00:49:35.823Z,7.68
2022-08-20T00:52:14.532Z,7.63
2022-08-20T00:54:58.583Z,5.75
2022-08-20T00:57:43.499Z,5.93
2022-08-20T01:00:22.310Z,6.93
2022-08-20T01:02:50.521Z,9.75
2022-08-20T01:05:17.380Z,7.28
2022-08-20T01:07:45.024Z,6.88
2022-08-20T01:10:14.439Z,6.72
2022-08-20T01:12:46.952Z,9.98
2022-08-20T01:15:17.747Z,7.05
2022-08-20T01:17:47.146Z,7.22
2022-08-20T01:20:23.556Z,7.13
2022-08-20T01:23:27.244Z,6.63
2022-08-20T01:26:13.682Z,7.53
2022-08-20T01:29:19.563Z,8.82
2022-08-20T01:31:46.235Z,9.05
2022-08-20T01:34:15.239Z,7.03
2022-08-20T01:36:48.005Z,8.25
2022-08-20T01:39:18.095Z,8.38
2022-08-20T01:42:07.562Z,8.43
2022-08-20T01:44:35.271Z,7.78
2022-08-20T01:47:09.091Z,7.28
2022-08-20T01:49:35.907Z,8.70
2022-08-20T01:52:05.837Z,10.48
2022-08-20T01:54:32.614Z,8.70
2022-08-20T01:57:14.116Z,10.20
2022-08-20T01:59:41.672Z,9.00
2022-08-20T02:02:08.730Z,6.95
2022-08-20T02:04:35.372Z,7.72
2022-08-20T02:07:04.162Z,10.98
2022-08-20T02:09:33.401Z,7.38
2022-08-20T02:12:00.149Z,8.27
2022-08-20T02:14:27.449Z,7.03
2022-08-20T02:16:55.115Z,9.52
2022-08-20T02:19:48.674Z,7.47
2022-08-20T02:22:27.136Z,7.35
2022-08-20T02:24:54.308Z,7.47
2022-08-20T02:27:23.799Z,9.02
2022-08-20T02:29:51.800Z,7.63
2022-08-20T02:32:24.200Z,9.27
2022-08-20T02:35:03.148Z,9.02
2022-08-20T02:37:29.824Z,9.15
2022-08-20T02:39:56.555Z,7.22
2022-08-20T02:42:23.251Z,7.03
2022-08-20T02:44:49.948Z,8.13
2022-08-20T02:47:17.166Z,8.35
2022-08-20T02:49:43.978Z,8.48
2022-08-20T02:52:10.980Z,8.15
2022-08-20T02:54:37.682Z,8.25
2022-08-20T02:57:04.630Z,9.10
2022-08-20T02:59:31.360Z,6.95
2022-08-20T03:02:00.740Z,7.45
2022-08-20T03:04:29.228Z,9.10
2022-08-20T03:06:56.270Z,6.88
2022-08-20T03:09:22.959Z,8.55
2022-08-20T03:11:49.645Z,7.25
2022-08-20T03:14:16.305Z,8.57
2022-08-20T03:16:43.174Z,8.80
2022-08-20T03:19:09.826Z,7.68
2022-08-20T03:21:36.732Z,6.30
2022-08-20T03:24:03.627Z,8.10
2022-08-20T03:26:30.318Z,8.75
2022-08-20T03:28:56.984Z,7.45
2022-08-20T03:31:23.705Z,7.88
2022-08-20T03:33:53.404Z,6.55
2022-08-20T03:36:27.712Z,7.72
2022-08-20T03:38:56.799Z,9.10
2022-08-20T03:41:23.858Z,6.20
2022-08-20T03:43:50.551Z,7.82
2022-08-20T03:46:23.239Z,8.52
2022-08-20T03:48:58.734Z,9.88
2022-08-20T03:51:28.093Z,6.93
2022-08-20T03:53:54.840Z,7.90
2022-08-20T03:56:21.483Z,7.70
2022-08-20T03:58:48.131Z,10.07
2022-08-20T04:01:45.548Z,7.68
2022-08-20T04:04:01.547Z,8.40
2022-08-20T04:06:29.526Z,8.25
2022-08-20T04:08:56.664Z,8.57
2022-08-20T04:11:24.183Z,8.68
2022-08-20T04:13:50.920Z,7.68
2022-08-20T04:16:18.040Z,8.32
2022-08-20T04:19:01.803Z,9.10
2022-08-20T04:21:32.502Z,8.35
2022-08-20T04:24:00.904Z,9.50
2022-08-20T04:26:30.795Z,8.10
2022-08-20T04:28:57.553Z,8.35
2022-08-20T04:31:33.290Z,7.68
2022-08-20T04:34:01.689Z,9.93
2022-08-20T04:36:28.490Z,10.57
2022-08-20T04:38:55.164Z,8.90
2022-08-20T04:41:23.584Z,7.38
2022-08-20T04:43:54.826Z,8.38
2022-08-20T04:46:23.526Z,7.85
2022-08-20T04:48:50.642Z,8.77
2022-08-20T04:51:18.254Z,9.68
2022-08-20T04:53:51.709Z,8.52
2022-08-20T04:56:19.773Z,11.60
2022-08-20T04:58:48.680Z,10.18
2022-08-20T05:01:15.438Z,10.93
2022-08-20T05:03:42.983Z,7.95
2022-08-20T05:06:10.351Z,8.60
2022-08-20T05:08:38.514Z,9.23
2022-08-20T05:11:27.665Z,10.13
2022-08-20T05:13:52.807Z,8.63
2022-08-20T05:16:20.158Z,8.85
2022-08-20T05:18:48.741Z,8.90
2022-08-20T05:21:19.771Z,7.70
2022-08-20T05:23:46.422Z,9.30
2022-08-20T05:26:13.222Z,10.82
2022-08-20T05:28:53.879Z,10.50
2022-08-20T05:31:32.157Z,9.60
2022-08-20T05:34:03.788Z,9.32
2022-08-20T05:36:30.442Z,11.40
2022-08-20T05:38:57.164Z,12.18
2022-08-20T05:41:29.228Z,11.45
2022-08-20T05:44:01.274Z,10.00
2022-08-20T05:46:29.413Z,11.40
2022-08-20T05:48:56.221Z,8.85
2022-08-20T05:51:27.079Z,8.85
2022-08-20T05:53:53.721Z,11.07
2022-08-20T05:56:20.370Z,8.05
2022-08-20T05:58:53.428Z,9.85
2022-08-20T06:01:20.224Z,8.48
2022-08-20T06:04:05.505Z,8.23
2022-08-20T06:06:46.194Z,10.98
2022-08-20T06:09:15.826Z,8.88
2022-08-20T06:11:42.490Z,9.98
2022-08-20T06:14:09.136Z,8.30
2022-08-20T06:16:37.215Z,9.88
2022-08-20T06:19:04.689Z,9.25
2022-08-20T06:21:31.369Z,8.48
2022-08-20T06:24:01.339Z,8.25
2022-08-20T06:26:30.350Z,10.15
2022-08-20T06:28:59.037Z,9.80
2022-08-20T06:31:27.255Z,7.97
2022-08-20T06:33:54.207Z,7.60
2022-08-20T06:36:20.900Z,8.98
2022-08-20T06:38:47.588Z,11.00
2022-08-20T06:41:14.230Z,7.53
2022-08-20T06:43:40.947Z,7.70
2022-08-20T06:46:08.135Z,7.70
2022-08-20T06:48:34.866Z,7.95
2022-08-20T06:51:01.688Z,7.28
2022-08-20T06:53:29.014Z,9.45
2022-08-20T06:55:56.241Z,6.75
2022-08-20T06:58:37.302Z,6.72
2022-08-20T07:01:09.269Z,7.43
2022-08-20T07:03:38.315Z,7.38
2022-08-20T07:06:05.440Z,7.07
2022-08-20T07:08:32.259Z,7.43
2022-08-20T07:10:59.560Z,7.30
2022-08-20T07:13:26.285Z,7.70
2022-08-20T07:15:54.210Z,6.10
2022-08-20T07:18:28.198Z,6.88
2022-08-20T07:20:56.944Z,5.22
2022-08-20T07:23:24.364Z,6.35
2022-08-20T07:25:51.056Z,6.40
2022-08-20T07:28:19.965Z,7.15
2022-08-20T07:31:13.439Z,5.45
2022-08-20T07:33:41.277Z,5.63
2022-08-20T07:36:08.329Z,5.03
2022-08-20T07:38:35.291Z,4.45
2022-08-20T07:41:04.512Z,4.18
2022-08-20T07:43:31.716Z,4.10
2022-08-20T07:46:01.313Z,5.00
2022-08-20T07:48:31.954Z,5.70
2022-08-20T07:51:00.470Z,4.55
2022-08-20T07:53:27.219Z,3.53
2022-08-20T07:55:59.162Z,3.45
2022-08-20T07:58:33.480Z,4.05
2022-08-20T08:01:00.499Z,3.80
2022-08-20T08:03:37.671Z,3.35
2022-08-20T08:06:17.007Z,4.05
2022-08-20T08:11:22.053Z,2.60
2022-08-20T08:13:48.711Z,3.35
2022-08-20T08:16:15.434Z,2.58
2022-08-20T08:18:44.210Z,2.58
2022-08-20T08:21:12.955Z,2.78
2022-08-20T08:23:44.532Z,3.38
2022-08-20T08:26:16.275Z,2.70
2022-08-20T08:28:46.093Z,2.60
2022-08-20T08:31:12.754Z,3.33
2022-08-20T08:33:40.821Z,3.50
2022-08-20T08:36:11.742Z,4.53
2022-08-20T08:38:40.430Z,4.18
2022-08-20T08:41:16.047Z,3.55
2022-08-20T08:43:42.718Z,6.35
2022-08-20T08:46:10.538Z,4.50
2022-08-20T08:48:45.432Z,3.42
2022-08-20T08:51:13.099Z,3.47
2022-08-20T08:53:46.262Z,5.55
2022-08-20T08:56:14.457Z,3.60
2022-08-20T08:58:41.890Z,3.60
2022-08-20T09:01:53.941Z,3.92
2022-08-20T09:04:01.780Z,3.42
2022-08-20T09:06:28.440Z,5.15
2022-08-20T09:09:00.986Z,3.72
2022-08-20T09:11:27.958Z,3.17
2022-08-20T09:13:54.775Z,3.05
2022-08-20T09:16:22.968Z,2.83
2022-08-20T09:18:50.228Z,6.20
2022-08-20T09:21:17.361Z,2.35
2022-08-20T09:23:44.496Z,3.78
2022-08-20T09:26:11.682Z,2.03
2022-08-20T09:28:38.759Z,1.50
2022-08-20T09:31:06.507Z,1.77
2022-08-20T09:33:34.155Z,2.15
2022-08-20T09:36:00.889Z,2.83
2022-08-20T09:38:27.631Z,3.20
2022-08-20T09:40:54.303Z,2.75
2022-08-20T09:43:21.013Z,4.00
2022-08-20T09:45:47.630Z,2.08
2022-08-20T09:48:14.270Z,3.47
2022-08-20T09:50:42.791Z,2.20
2022-08-20T09:53:09.439Z,2.38
2022-08-20T09:55:37.262Z,1.67
2022-08-20T09:58:27.632Z,2.63
2022-08-20T10:00:54.786Z,2.30
2022-08-20T10:03:21.854Z,2.20
2022-08-20T10:05:48.906Z,7.32
2022-08-20T10:08:16.087Z,1.90
2022-08-20T10:10:43.150Z,2.22
2022-08-20T10:13:10.259Z,1.30
2022-08-20T10:15:40.512Z,2.65
2022-08-20T10:18:09.154Z,1.55
2022-08-20T10:20:39.497Z,3.40
2022-08-20T10:23:06.662Z,2.08
2022-08-20T10:25:33.708Z,2.00
2022-08-20T10:28:00.783Z,2.80
2022-08-20T10:30:27.871Z,3.30
2022-08-20T10:32:54.954Z,3.17
2022-08-20T10:35:22.166Z,4.07
2022-08-20T10:37:49.332Z,2.85
2022-08-20T10:40:16.619Z,3.33
2022-08-20T10:42:43.774Z,2.83
2022-08-20T10:45:14.623Z,2.58
2022-08-20T10:47:41.443Z,2.08
2022-08-20T10:50:10.247Z,3.35
2022-08-20T10:52:36.904Z,4.38
2022-08-20T10:55:04.768Z,2.28
2022-08-20T10:57:31.787Z,2.75
2022-08-20T10:59:59.007Z,2.10
2022-08-20T11:02:25.955Z,2.47
2022-08-20T11:04:53.237Z,2.00
2022-08-20T11:07:53.645Z,2.20
2022-08-20T11:10:15.237Z,2.15
2022-08-20T11:12:42.221Z,2.55
2022-08-20T11:15:12.778Z,4.28
2022-08-20T11:17:40.820Z,3.22
2022-08-20T11:20:08.304Z,3.92
2022-08-20T11:22:35.289Z,2.95
2022-08-20T11:25:02.286Z,5.72
2022-08-20T11:27:33.686Z,3.05
2022-08-20T11:30:00.414Z,4.00
2022-08-20T11:32:27.227Z,3.45
2022-08-20T11:34:53.852Z,4.45
2022-08-20T11:37:21.597Z,5.13
2022-08-20T11:39:48.499Z,2.90
2022-08-20T11:42:15.188Z,2.67
2022-08-20T11:44:41.866Z,2.70
2022-08-20T11:47:08.650Z,2.38
2022-08-20T11:49:36.420Z,1.20
2022-08-20T11:52:04.362Z,4.50
2022-08-20T11:54:32.500Z,2.10
2022-08-20T11:56:59.595Z,1.67
2022-08-20T11:59:26.678Z,1.75
2022-08-20T12:02:02.805Z,1.10
2022-08-20T12:04:33.500Z,2.25
2022-08-20T12:07:08.887Z,1.75
2022-08-20T12:09:35.551Z,3.45
2022-08-20T12:12:07.202Z,1.45
2022-08-20T12:14:34.011Z,1.63
2022-08-20T12:17:23.506Z,1.38
2022-08-20T12:19:51.306Z,2.33
2022-08-20T12:22:24.456Z,2.38
2022-08-20T12:24:52.269Z,2.00
2022-08-20T12:27:26.734Z,1.40
2022-08-20T12:29:54.431Z,2.15
2022-08-20T12:32:21.974Z,1.88
2022-08-20T12:34:48.763Z,3.75
2022-08-20T12:37:17.149Z,2.30
2022-08-20T12:39:45.240Z,1.63
2022-08-20T12:42:12.127Z,2.13
2022-08-20T12:44:38.919Z,2.58
2022-08-20T12:47:10.267Z,3.15
2022-08-20T12:49:37.411Z,2.90
2022-08-20T12:52:04.900Z,4.68
2022-08-20T12:54:31.985Z,1.92
2022-08-20T12:56:59.099Z,2.03
2022-08-20T12:59:26.327Z,2.58
2022-08-20T13:01:53.601Z,2.70
2022-08-20T13:04:20.831Z,1.80
2022-08-20T13:06:47.946Z,2.85
2022-08-20T13:09:15.949Z,2.17
2022-08-20T13:11:43.026Z,1.38
2022-08-20T13:14:10.212Z,0.82
2022-08-20T13:16:37.294Z,1.00
2022-08-20T13:19:04.362Z,1.25
2022-08-20T13:21:31.572Z,2.08
2022-08-20T13:23:58.638Z,0.98
2022-08-20T13:26:25.719Z,2.47
2022-08-20T13:28:52.822Z,3.63
2022-08-20T13:31:19.951Z,1.10
2022-08-20T13:33:47.231Z,2.03
2022-08-20T13:36:14.379Z,1.63
2022-08-20T13:38:41.439Z,1.67
2022-08-20T13:41:08.489Z,1.50
2022-08-20T13:43:35.627Z,4.15
2022-08-20T13:46:02.761Z,2.85
2022-08-20T13:48:29.860Z,1.88
2022-08-20T13:50:56.935Z,2.00
2022-08-20T13:53:24.521Z,1.73
2022-08-20T13:55:51.592Z,2.25
2022-08-20T13:58:18.678Z,1.73
2022-08-20T14:00:45.942Z,1.50
2022-08-20T14:03:13.059Z,2.03
2022-08-20T14:05:40.981Z,2.78
2022-08-20T14:08:12.063Z,3.58
2022-08-20T14:10:39.366Z,1.50
2022-08-20T14:13:14.631Z,3.05
2022-08-20T14:15:42.763Z,2.80
2022-08-20T14:18:09.973Z,1.55
2022-08-20T14:20:38.713Z,2.20
2022-08-20T14:23:05.665Z,2.20
2022-08-20T14:25:32.430Z,6.75
2022-08-20T14:27:59.329Z,2.17
2022-08-20T14:30:28.347Z,1.90
2022-08-20T14:32:55.081Z,2.85
2022-08-20T14:35:22.515Z,2.20
2022-08-20T14:37:53.530Z,3.38
2022-08-20T14:40:22.545Z,2.00
2022-08-20T14:42:51.648Z,3.65
2022-08-20T14:45:21.962Z,2.30
2022-08-20T14:47:54.381Z,2.10
2022-08-20T14:50:33.225Z,3.03
2022-08-20T14:53:00.100Z,2.13
2022-08-20T14:55:37.164Z,3.28
2022-08-20T14:58:08.495Z,3.20
2022-08-20T15:00:35.252Z,3.58
2022-08-20T15:03:02.089Z,2.50
2022-08-20T15:05:29.815Z,2.22
2022-08-20T15:07:57.681Z,3.20
2022-08-20T15:10:27.248Z,2.25
2022-08-20T15:12:54.425Z,2.75
2022-08-20T15:15:21.579Z,3.53
2022-08-20T15:17:49.635Z,2.30
2022-08-20T15:20:20.693Z,3.63
2022-08-20T15:22:48.210Z,4.32
2022-08-20T15:25:15.799Z,2.40
2022-08-20T15:27:42.948Z,3.10
2022-08-20T15:30:11.122Z,3.95
2022-08-20T15:32:38.274Z,4.75
2022-08-20T15:35:05.681Z,2.25
2022-08-20T15:37:32.757Z,4.50
2022-08-20T15:39:59.909Z,3.92
2022-08-20T15:42:27.117Z,2.20
2022-08-20T15:44:54.199Z,2.97
2022-08-20T15:47:21.437Z,4.65
2022-08-20T15:49:49.230Z,3.00
2022-08-20T15:52:16.278Z,3.70
2022-08-20T15:54:43.610Z,4.50
2022-08-20T15:57:17.272Z,3.72
2022-08-20T15:59:59.803Z,3.55
2022-08-20T16:02:44.272Z,2.45
2022-08-20T16:05:14.402Z,3.80
2022-08-20T16:08:00.832Z,4.10
2022-08-20T16:10:31.647Z,2.38
2022-08-20T16:12:59.515Z,2.72
2022-08-20T16:15:31.034Z,3.13
2022-08-20T16:18:17.160Z,4.30
2022-08-20T16:20:47.723Z,2.92
2022-08-20T16:23:18.819Z,4.30
2022-08-20T16:26:04.662Z,2.65
2022-08-20T16:28:38.805Z,4.07
2022-08-20T16:31:07.726Z,3.70
2022-08-20T16:33:38.013Z,7.10
2022-08-20T16:36:09.317Z,3.55
2022-08-20T16:38:41.258Z,3.60
2022-08-20T16:41:15.714Z,4.47
2022-08-20T16:43:53.391Z,4.50
2022-08-20T16:46:21.316Z,3.90
2022-08-20T16:48:52.762Z,4.70
2022-08-20T16:51:21.935Z,4.43
2022-08-20T16:53:48.975Z,4.10
2022-08-20T16:56:16.338Z,5.65
2022-08-20T16:58:45.348Z,7.43
2022-08-20T17:01:13.500Z,4.47
2022-08-20T17:03:43.204Z,5.88
2022-08-20T17:06:29.024Z,5.05
2022-08-20T17:08:56.072Z,5.63
2022-08-20T17:11:28.961Z,5.20
2022-08-20T17:14:06.623Z,5.55
2022-08-20T17:16:35.007Z,4.88
2022-08-20T17:19:09.488Z,5.78
2022-08-20T17:21:38.174Z,5.75
2022-08-20T17:24:25.868Z,6.20
2022-08-20T17:27:03.271Z,6.95
2022-08-20T17:29:34.246Z,6.80
2022-08-20T17:32:02.035Z,6.95
2022-08-20T17:34:34.577Z,6.15
2022-08-20T17:37:04.014Z,7.03
2022-08-20T17:39:31.787Z,6.07
2022-08-20T17:42:08.987Z,7.72
2022-08-20T17:44:39.882Z,5.70
2022-08-20T17:47:10.702Z,6.82
2022-08-20T17:50:02.154Z,5.78
2022-08-20T17:52:40.010Z,6.45
2022-08-20T17:55:07.295Z,5.05
2022-08-20T17:57:37.854Z,6.97
2022-08-20T18:00:09.904Z,7.45
2022-08-20T18:02:37.021Z,5.15
2022-08-20T18:05:16.730Z,4.88
2022-08-20T18:07:43.791Z,8.63
2022-08-20T18:10:15.167Z,5.95
2022-08-20T18:12:46.022Z,5.75
2022-08-20T18:15:22.388Z,5.68
2022-08-20T18:18:01.343Z,6.85
2022-08-20T18:20:47.153Z,8.52
2022-08-20T18:23:18.898Z,8.07
2022-08-20T18:26:05.115Z,7.45
2022-08-20T18:28:38.202Z,7.72
2022-08-20T18:31:07.657Z,9.10
2022-08-20T18:33:35.763Z,8.18
2022-08-20T18:36:10.027Z,5.30
2022-08-20T18:38:38.450Z,9.20
2022-08-20T18:41:15.711Z,7.43
2022-08-20T18:43:42.639Z,5.18
2022-08-20T18:46:11.240Z,5.55
2022-08-20T18:48:37.996Z,6.05
2022-08-20T18:51:08.086Z,4.95
2022-08-20T18:53:34.806Z,6.28
2022-08-20T18:56:08.808Z,6.10
2022-08-20T18:58:53.965Z,8.43
2022-08-20T19:01:20.652Z,7.30
2022-08-20T19:03:54.924Z,7.85
2022-08-20T19:06:25.232Z,7.72
2022-08-20T19:08:53.830Z,5.75
2022-08-20T19:11:45.083Z,5.25
2022-08-20T19:14:49.638Z,11.38
2022-08-20T19:17:35.122Z,6.57
2022-08-20T19:20:04.029Z,7.05
2022-08-20T19:22:30.872Z,8.23
2022-08-20T19:24:58.610Z,7.60
2022-08-20T19:27:25.983Z,5.15
2022-08-20T19:29:56.677Z,5.97
2022-08-20T19:32:32.997Z,7.68
2022-08-20T19:35:01.822Z,6.53
2022-08-20T19:37:38.512Z,8.43
2022-08-20T19:40:24.865Z,6.57
2022-08-20T19:42:55.112Z,6.72
2022-08-20T19:45:35.986Z,5.25
2022-08-20T19:48:27.200Z,7.60
2022-08-20T19:51:09.006Z,7.30
2022-08-20T19:53:37.069Z,7.13
2022-08-20T19:56:09.779Z,6.55
2022-08-20T19:58:36.631Z,6.47
2022-08-20T20:01:04.487Z,10.85
2022-08-20T20:03:33.286Z,6.70
2022-08-20T20:06:16.144Z,7.50
2022-08-20T20:09:04.909Z,6.93
2022-08-20T20:11:36.859Z,7.80
2022-08-20T20:14:06.328Z,6.00
2022-08-20T20:16:34.604Z,7.53
2022-08-20T20:19:24.746Z,8.93
2022-08-20T20:21:52.782Z,6.88
2022-08-20T20:24:30.763Z,8.32
2022-08-20T20:26:58.778Z,9.68
2022-08-20T20:29:27.289Z,6.18
2022-08-20T20:31:57.919Z,7.55
2022-08-20T20:34:29.974Z,7.05
2022-08-20T20:37:11.626Z,9.60
2022-08-20T20:39:41.051Z,8.73
2022-08-20T20:42:11.027Z,7.13
2022-08-20T20:44:43.206Z,8.05
2022-08-20T20:47:36.551Z,7.03
2022-08-20T20:50:05.978Z,6.72
2022-08-20T20:52:37.356Z,9.53
2022-08-20T20:55:11.494Z,8.68
2022-08-20T20:57:39.091Z,7.97
2022-08-20T21:00:12.695Z,10.07
2022-08-20T21:02:39.524Z,7.00
2022-08-20T21:05:06.626Z,5.45
2022-08-20T21:07:33.297Z,8.90
2022-08-20T21:09:59.964Z,8.48
2022-08-20T21:12:26.606Z,6.47
2022-08-20T21:14:53.316Z,5.32
2022-08-20T21:17:21.923Z,9.18
2022-08-20T21:19:49.526Z,7.65
2022-08-20T21:22:16.186Z,8.43
2022-08-20T21:24:42.916Z,9.27
2022-08-20T21:27:09.690Z,8.93
2022-08-20T21:29:39.058Z,8.85
2022-08-20T21:32:05.989Z,9.68
2022-08-20T21:34:32.667Z,8.95
2022-08-20T21:36:59.379Z,7.38
2022-08-20T21:39:27.277Z,8.20
2022-08-20T21:41:54.956Z,7.65
2022-08-20T21:44:27.419Z,7.50
2022-08-20T21:46:56.446Z,9.13
2022-08-20T21:49:23.751Z,5.45
2022-08-20T21:51:50.883Z,10.77
2022-08-20T21:54:17.821Z,6.45
2022-08-20T21:56:47.227Z,7.60
2022-08-20T21:59:14.564Z,6.67
2022-08-20T22:01:41.564Z,10.52
2022-08-20T22:04:08.580Z,7.57
2022-08-20T22:06:35.511Z,8.15
2022-08-20T22:09:02.484Z,8.15
2022-08-20T22:11:29.127Z,8.20
2022-08-20T22:13:55.800Z,8.52
2022-08-20T22:16:23.002Z,8.40
2022-08-20T22:18:49.730Z,7.25
2022-08-20T22:21:24.687Z,7.35
2022-08-20T22:23:51.569Z,7.75
2022-08-20T22:26:18.540Z,5.40
2022-08-20T22:28:45.186Z,7.28
2022-08-20T22:31:19.541Z,6.30
2022-08-20T22:33:46.154Z,9.88
2022-08-20T22:36:12.841Z,5.35
2022-08-20T22:38:39.507Z,9.70
2022-08-20T22:41:09.527Z,8.77
2022-08-20T22:43:36.796Z,6.70
2022-08-20T22:46:23.807Z,8.60
2022-08-20T22:48:53.091Z,7.13
2022-08-20T22:51:38.856Z,9.20
2022-08-20T22:54:07.283Z,9.60
2022-08-20T22:56:33.916Z,8.13
2022-08-20T22:59:01.643Z,12.27
2022-08-20T23:01:28.592Z,7.13
2022-08-20T23:03:57.358Z,9.50
2022-08-20T23:06:24.644Z,10.05
2022-08-20T23:08:51.275Z,7.13
2022-08-20T23:11:18.327Z,7.38
2022-08-20T23:13:44.968Z,9.88
2022-08-20T23:16:11.872Z,8.23
2022-08-20T23:18:38.683Z,9.70
2022-08-20T23:21:05.553Z,8.02
2022-08-20T23:23:32.254Z,7.88
2022-08-20T23:25:58.914Z,14.38
2022-08-20T23:28:26.058Z,7.38
2022-08-20T23:30:52.843Z,8.10
2022-08-20T23:33:19.542Z,6.65
2022-08-20T23:35:46.191Z,9.57
2022-08-20T23:38:12.955Z,7.57
2022-08-20T23:40:39.946Z,10.88
2022-08-20T23:43:06.630Z,8.23
2022-08-20T23:45:33.418Z,11.07
2022-08-20T23:48:00.103Z,8.93
2022-08-20T23:50:28.675Z,9.43
2022-08-20T23:52:55.517Z,11.52
2022-08-20T23:55:22.894Z,12.73
2022-08-20T23:57:50.220Z,8.82
